createdAt,value
2022-08-09T00:02:06.342Z,21.53
2022-08-09T00:04:37.618Z,20.87
2022-08-09T00:07:10.756Z,20.39
2022-08-09T00:09:41.997Z,20.02
2022-08-09T00:12:22.854Z,19.97
2022-08-09T00:14:56.846Z,21.09
2022-08-09T00:18:07.560Z,22.05
2022-08-09T00:20:18.106Z,22.41
2022-08-09T00:22:49.228Z,21.66
2022-08-09T00:25:23.345Z,20.92
2022-08-09T00:28:04.228Z,20.34
2022-08-09T00:30:35.716Z,19.97
2022-08-09T00:33:07.024Z,19.68
2022-08-09T00:35:43.541Z,19.70
2022-08-09T00:38:15.344Z,20.85
2022-08-09T00:40:52.688Z,21.82
2022-08-09T00:44:10.713Z,22.22
2022-08-09T00:46:55.932Z,21.47
2022-08-09T00:49:05.490Z,20.64
2022-08-09T00:51:54.654Z,20.08
2022-08-09T00:54:31.412Z,19.65
2022-08-09T00:57:10.130Z,19.37
2022-08-09T00:59:47.098Z,19.46
2022-08-09T01:02:24.358Z,20.69
2022-08-09T01:05:02.555Z,21.67
2022-08-09T01:07:59.914Z,22.04
2022-08-09T01:10:35.228Z,21.19
2022-08-09T01:13:16.826Z,20.52
2022-08-09T01:15:52.518Z,20.01
2022-08-09T01:18:30.549Z,19.66
2022-08-09T01:21:09.884Z,19.38
2022-08-09T01:24:02.325Z,19.46
2022-08-09T01:26:46.303Z,20.74
2022-08-09T01:29:28.134Z,21.73
2022-08-09T01:32:30.738Z,22.04
2022-08-09T01:34:55.200Z,21.22
2022-08-09T01:37:43.101Z,20.51
2022-08-09T01:40:23.105Z,19.97
2022-08-09T01:42:59.437Z,19.56
2022-08-09T01:45:31.763Z,19.24
2022-08-09T01:48:05.969Z,19.25
2022-08-09T01:50:41.886Z,20.36
2022-08-09T01:53:19.575Z,21.42
2022-08-09T01:55:51.536Z,21.86
2022-08-09T01:58:27.275Z,21.14
2022-08-09T02:00:59.542Z,20.47
2022-08-09T02:03:31.421Z,19.96
2022-08-09T02:06:06.425Z,19.58
2022-08-09T02:08:58.599Z,19.27
2022-08-09T02:11:42.886Z,19.02
2022-08-09T02:14:26.385Z,18.83
2022-08-09T02:17:15.166Z,18.68
2022-08-09T02:19:47.193Z,18.53
2022-08-09T02:22:27.268Z,18.70
2022-08-09T02:25:03.811Z,20.14
2022-08-09T02:27:57.471Z,21.03
2022-08-09T02:30:29.705Z,20.49
2022-08-09T02:33:01.828Z,19.92
2022-08-09T02:36:03.369Z,19.52
2022-08-09T02:38:28.669Z,19.20
2022-08-09T02:41:04.545Z,18.99
2022-08-09T02:43:42.550Z,18.81
2022-08-09T02:46:27.498Z,18.65
2022-08-09T02:48:56.980Z,18.51
2022-08-09T02:51:36.945Z,18.40
2022-08-09T02:54:14.165Z,18.29
2022-08-09T02:56:51.406Z,18.53
2022-08-09T02:59:26.498Z,19.87
2022-08-09T03:02:11.903Z,20.59
2022-08-09T03:04:50.774Z,20.07
2022-08-09T03:07:22.528Z,19.51
2022-08-09T03:09:56.719Z,19.14
2022-08-09T03:12:31.783Z,18.88
2022-08-09T03:15:03.257Z,18.70
2022-08-09T03:17:37.538Z,18.55
2022-08-09T03:20:10.999Z,18.42
2022-08-09T03:22:44.882Z,18.60
2022-08-09T03:25:26.799Z,19.91
2022-08-09T03:28:11.297Z,20.82
2022-08-09T03:30:43.401Z,20.27
2022-08-09T03:33:19.179Z,19.69
2022-08-09T03:36:15.525Z,19.28
2022-08-09T03:38:44.606Z,18.99
2022-08-09T03:41:16.611Z,18.80
2022-08-09T03:44:02.943Z,18.65
2022-08-09T03:46:39.507Z,18.50
2022-08-09T03:49:10.965Z,18.38
2022-08-09T03:51:57.325Z,18.58
2022-08-09T03:54:31.797Z,20.03
2022-08-09T03:57:04.462Z,20.92
2022-08-09T03:59:53.759Z,20.42
2022-08-09T04:02:28.591Z,19.78
2022-08-09T04:05:00.648Z,19.38
2022-08-09T04:07:33.905Z,19.08
2022-08-09T04:10:28.841Z,18.82
2022-08-09T04:13:04.436Z,18.64
2022-08-09T04:16:18.697Z,18.50
2022-08-09T04:18:26.010Z,18.34
2022-08-09T04:20:58.816Z,18.26
2022-08-09T04:23:29.410Z,18.51
2022-08-09T04:26:01.594Z,19.86
2022-08-09T04:28:36.292Z,20.84
2022-08-09T04:31:10.203Z,20.46
2022-08-09T04:33:47.606Z,19.87
2022-08-09T04:36:25.751Z,19.44
2022-08-09T04:38:57.232Z,19.14
2022-08-09T04:41:32.599Z,18.92
2022-08-09T04:44:10.952Z,18.76
2022-08-09T04:46:58.909Z,18.62
2022-08-09T04:49:52.196Z,18.47
2022-08-09T04:52:26.450Z,18.33
2022-08-09T04:54:58.731Z,18.25
2022-08-09T04:57:58.747Z,18.19
2022-08-09T05:00:21.562Z,18.14
2022-08-09T05:02:53.079Z,18.13
2022-08-09T05:05:31.903Z,18.92
2022-08-09T05:08:15.229Z,20.48
2022-08-09T05:10:46.222Z,21.09
2022-08-09T05:13:16.896Z,20.54
2022-08-09T05:15:56.438Z,19.92
2022-08-09T05:18:55.161Z,19.50
2022-08-09T05:21:24.439Z,19.20
2022-08-09T05:24:01.628Z,18.99
2022-08-09T05:26:45.284Z,18.82
2022-08-09T05:29:21.827Z,18.72
2022-08-09T05:31:57.462Z,18.63
2022-08-09T05:34:30.983Z,18.53
2022-08-09T05:37:06.199Z,18.45
2022-08-09T05:39:43.480Z,18.39
2022-08-09T05:42:17.936Z,18.36
2022-08-09T05:44:52.611Z,18.36
2022-08-09T05:47:52.448Z,18.36
2022-08-09T05:51:42.742Z,18.38
2022-08-09T05:54:22.944Z,18.42
2022-08-09T05:56:56.996Z,18.46
2022-08-09T05:59:27.250Z,18.50
2022-08-09T06:01:59.570Z,18.53
2022-08-09T06:04:35.080Z,18.55
2022-08-09T06:07:05.901Z,18.58
2022-08-09T06:09:54.052Z,18.64
2022-08-09T06:12:26.390Z,18.80
2022-08-09T06:15:00.962Z,18.95
2022-08-09T06:17:40.389Z,19.11
2022-08-09T06:20:11.868Z,19.29
2022-08-09T06:22:49.054Z,19.43
2022-08-09T06:25:21.249Z,19.57
2022-08-09T06:27:52.362Z,19.69
2022-08-09T06:30:23.089Z,19.81
2022-08-09T06:33:00.474Z,19.95
2022-08-09T06:35:56.888Z,20.09
2022-08-09T06:38:32.136Z,20.20
2022-08-09T06:41:13.480Z,20.33
2022-08-09T06:43:49.175Z,20.46
2022-08-09T06:46:40.219Z,20.53
2022-08-09T06:49:10.095Z,20.63
2022-08-09T06:51:40.607Z,20.73
2022-08-09T06:54:14.781Z,20.80
2022-08-09T06:56:46.380Z,20.87
2022-08-09T07:00:49.223Z,20.97
2022-08-09T07:02:07.942Z,21.06
2022-08-09T07:04:39.701Z,21.11
2022-08-09T07:07:11.834Z,21.20
2022-08-09T07:09:55.253Z,21.28
2022-08-09T07:12:38.853Z,21.40
2022-08-09T07:16:39.285Z,21.54
2022-08-09T07:18:03.836Z,21.70
2022-08-09T07:20:34.573Z,21.74
2022-08-09T07:23:19.043Z,21.77
2022-08-09T07:25:52.280Z,21.83
2022-08-09T07:28:34.953Z,21.93
2022-08-09T07:31:06.589Z,22.00
2022-08-09T07:33:52.810Z,22.07
2022-08-09T07:36:26.637Z,22.16
2022-08-09T07:39:00.882Z,22.24
2022-08-09T07:41:38.671Z,22.31
2022-08-09T07:44:09.615Z,22.39
2022-08-09T07:46:40.879Z,22.46
2022-08-09T07:49:15.372Z,22.53
2022-08-09T07:52:05.785Z,22.56
2022-08-09T07:54:38.542Z,22.59
2022-08-09T07:57:11.870Z,22.66
2022-08-09T07:59:51.892Z,22.76
2022-08-09T08:02:29.340Z,22.88
2022-08-09T08:05:00.245Z,22.96
2022-08-09T08:08:42.623Z,23.06
2022-08-09T08:10:27.366Z,23.10
2022-08-09T08:13:04.807Z,23.13
2022-08-09T08:15:39.290Z,23.20
2022-08-09T08:18:09.965Z,23.29
2022-08-09T08:20:44.995Z,23.40
2022-08-09T08:23:17.948Z,23.52
2022-08-09T08:25:48.283Z,23.60
2022-08-09T08:28:32.176Z,23.64
2022-08-09T08:31:13.826Z,23.72
2022-08-09T08:33:53.001Z,23.84
2022-08-09T08:36:28.799Z,23.85
2022-08-09T08:39:00.983Z,23.89
2022-08-09T08:41:41.738Z,23.95
2022-08-09T08:44:28.757Z,24.01
2022-08-09T08:47:05.032Z,24.03
2022-08-09T08:49:48.256Z,24.02
2022-08-09T08:55:13.644Z,24.24
2022-08-09T08:57:57.290Z,24.24
2022-08-09T09:00:30.205Z,24.23
2022-08-09T09:03:12.240Z,24.27
2022-08-09T09:06:03.291Z,24.40
2022-08-09T09:08:42.275Z,24.58
2022-08-09T09:11:13.706Z,24.61
2022-08-09T09:13:56.159Z,24.58
2022-08-09T09:16:32.434Z,24.44
2022-08-09T09:22:05.322Z,24.44
2022-08-09T09:24:39.778Z,24.65
2022-08-09T09:28:03.807Z,24.76
2022-08-09T09:30:28.901Z,24.68
2022-08-09T09:33:16.526Z,24.60
2022-08-09T09:36:01.802Z,24.61
2022-08-09T09:38:45.385Z,24.75
2022-08-09T09:41:49.338Z,24.90
2022-08-09T09:44:28.040Z,24.84
2022-08-09T09:47:08.357Z,24.81
2022-08-09T09:49:56.513Z,24.81
2022-08-09T09:52:36.663Z,24.65
2022-08-09T09:55:23.892Z,24.64
2022-08-09T09:58:17.883Z,24.53
2022-08-09T10:00:54.027Z,24.46
2022-08-09T10:03:43.660Z,24.50
2022-08-09T10:06:14.964Z,24.51
2022-08-09T10:08:57.322Z,24.49
2022-08-09T10:11:59.173Z,24.46
2022-08-09T10:14:30.612Z,24.40
2022-08-09T10:17:40.147Z,24.35
2022-08-09T10:20:03.897Z,24.34
2022-08-09T10:22:35.376Z,24.34
2022-08-09T10:25:12.115Z,24.29
2022-08-09T10:27:57.358Z,24.24
2022-08-09T10:34:04.377Z,24.11
2022-08-09T10:36:12.318Z,24.07
2022-08-09T10:38:57.286Z,24.02
2022-08-09T10:41:31.238Z,23.94
2022-08-09T10:44:02.442Z,23.86
2022-08-09T10:46:54.493Z,23.84
2022-08-09T10:49:24.568Z,23.81
2022-08-09T10:52:26.426Z,23.80
2022-08-09T10:54:57.262Z,23.77
2022-08-09T10:57:37.522Z,23.76
2022-08-09T11:00:32.936Z,23.75
2022-08-09T11:03:19.055Z,23.75
2022-08-09T11:06:24.715Z,23.87
2022-08-09T11:09:15.553Z,24.11
2022-08-09T11:12:05.254Z,24.36
2022-08-09T11:14:37.932Z,24.63
2022-08-09T11:17:06.824Z,24.84
2022-08-09T11:20:10.636Z,25.02
2022-08-09T11:23:00.696Z,25.24
2022-08-09T11:25:47.333Z,25.43
2022-08-09T11:28:34.633Z,25.63
2022-08-09T11:31:33.955Z,25.82
2022-08-09T11:34:11.039Z,25.85
2022-08-09T11:36:43.498Z,25.88
2022-08-09T11:39:14.946Z,25.97
2022-08-09T11:41:48.803Z,26.05
2022-08-09T11:44:19.912Z,26.11
2022-08-09T11:46:54.346Z,26.17
2022-08-09T11:49:42.969Z,26.28
2022-08-09T11:53:03.530Z,26.33
2022-08-09T11:55:51.577Z,26.30
2022-08-09T11:58:40.273Z,26.34
2022-08-09T12:02:00.724Z,26.45
2022-08-09T12:04:20.553Z,26.52
2022-08-09T12:06:56.408Z,26.52
2022-08-09T12:09:33.588Z,26.44
2022-08-09T12:12:12.954Z,26.33
2022-08-09T12:15:08.244Z,26.30
2022-08-09T12:17:43.575Z,26.21
2022-08-09T12:20:21.618Z,26.06
2022-08-09T12:22:56.060Z,25.92
2022-08-09T12:25:31.934Z,25.83
2022-08-09T12:29:12.072Z,25.77
2022-08-09T12:31:10.740Z,25.74
2022-08-09T12:34:01.069Z,25.71
2022-08-09T12:36:35.983Z,25.69
2022-08-09T12:39:14.692Z,25.62
2022-08-09T12:41:45.809Z,25.50
2022-08-09T12:44:16.314Z,25.41
2022-08-09T12:46:55.255Z,25.35
2022-08-09T12:49:26.790Z,25.26
2022-08-09T12:52:02.038Z,25.23
2022-08-09T12:54:47.352Z,25.30
2022-08-09T12:57:41.645Z,26.11
2022-08-09T13:00:18.445Z,27.07
2022-08-09T13:02:54.261Z,27.94
2022-08-09T13:05:26.517Z,28.24
2022-08-09T13:08:12.859Z,28.14
2022-08-09T13:10:52.355Z,27.92
2022-08-09T13:13:37.939Z,27.63
2022-08-09T13:16:22.045Z,27.21
2022-08-09T13:18:54.316Z,26.85
2022-08-09T13:22:37.087Z,26.63
2022-08-09T13:24:53.650Z,26.44
2022-08-09T13:27:22.776Z,26.29
2022-08-09T13:30:04.323Z,26.23
2022-08-09T13:32:48.578Z,26.35
2022-08-09T13:35:20.237Z,26.54
2022-08-09T13:37:52.857Z,26.80
2022-08-09T13:41:52.044Z,27.33
2022-08-09T13:43:15.981Z,28.17
2022-08-09T13:46:44.586Z,28.74
2022-08-09T13:48:42.322Z,29.28
2022-08-09T13:51:12.900Z,29.53
2022-08-09T13:53:44.720Z,30.15
2022-08-09T13:56:15.480Z,30.96
2022-08-09T13:58:49.297Z,31.77
2022-08-09T14:02:01.368Z,32.22
2022-08-09T14:04:11.874Z,32.29
2022-08-09T14:06:46.452Z,32.41
2022-08-09T14:09:18.202Z,32.70
2022-08-09T14:11:48.822Z,32.92
2022-08-09T14:14:25.023Z,33.09
2022-08-09T14:16:57.357Z,33.34
2022-08-09T14:19:33.064Z,33.69
2022-08-09T14:22:04.354Z,34.12
2022-08-09T14:24:35.389Z,34.44
2022-08-09T14:27:19.921Z,34.78
2022-08-09T14:30:34.137Z,34.98
2022-08-09T14:32:42.876Z,35.21
2022-08-09T14:35:13.874Z,35.08
2022-08-09T14:38:02.984Z,34.12
2022-08-09T14:41:01.186Z,32.75
2022-08-09T14:43:25.893Z,31.52
2022-08-09T14:46:57.243Z,30.47
2022-08-09T14:49:10.598Z,29.60
2022-08-09T14:51:42.232Z,29.04
2022-08-09T14:54:13.669Z,28.82
2022-08-09T14:56:57.315Z,29.02
2022-08-09T14:59:29.564Z,29.24
2022-08-09T15:02:01.540Z,29.42
2022-08-09T15:04:33.398Z,29.41
2022-08-09T15:07:04.179Z,29.23
2022-08-09T15:10:04.486Z,29.37
2022-08-09T15:12:25.575Z,29.37
2022-08-09T15:14:58.043Z,29.03
2022-08-09T15:17:29.089Z,28.52
2022-08-09T15:20:02.672Z,28.02
2022-08-09T15:22:34.462Z,27.53
2022-08-09T15:25:39.315Z,27.09
2022-08-09T15:28:26.227Z,26.64
2022-08-09T15:31:08.581Z,26.24
2022-08-09T15:34:32.341Z,25.97
2022-08-09T15:36:32.177Z,25.73
2022-08-09T15:39:03.237Z,25.61
2022-08-09T15:41:34.783Z,25.52
2022-08-09T15:44:06.159Z,25.45
2022-08-09T15:46:36.854Z,25.40
2022-08-09T15:49:22.423Z,25.39
2022-08-09T15:52:04.712Z,25.30
2022-08-09T15:54:52.613Z,25.22
2022-08-09T15:57:35.644Z,25.17
2022-08-09T16:00:24.361Z,25.08
2022-08-09T16:02:57.177Z,24.96
2022-08-09T16:05:53.905Z,24.89
2022-08-09T16:08:30.049Z,24.83
2022-08-09T16:11:02.813Z,24.78
2022-08-09T16:14:03.664Z,24.75
2022-08-09T16:16:28.387Z,24.68
2022-08-09T16:18:59.074Z,24.63
2022-08-09T16:21:31.798Z,24.62
2022-08-09T16:24:05.610Z,24.57
2022-08-09T16:26:44.095Z,24.50
2022-08-09T16:29:20.139Z,24.46
2022-08-09T16:32:19.002Z,24.44
2022-08-09T16:34:55.465Z,24.44
2022-08-09T16:37:55.605Z,24.42
2022-08-09T16:40:29.963Z,24.49
2022-08-09T16:43:11.570Z,24.53
2022-08-09T16:45:44.304Z,24.57
2022-08-09T16:48:39.645Z,24.60
2022-08-09T16:51:07.874Z,24.62
2022-08-09T16:53:56.232Z,24.60
2022-08-09T16:56:30.885Z,24.56
2022-08-09T16:59:06.728Z,24.51
2022-08-09T17:01:44.642Z,24.45
2022-08-09T17:04:26.080Z,24.38
2022-08-09T17:08:41.584Z,24.32
2022-08-09T17:09:51.295Z,24.25
2022-08-09T17:12:21.949Z,24.21
2022-08-09T17:14:58.209Z,24.18
2022-08-09T17:17:30.764Z,24.12
2022-08-09T17:20:32.696Z,24.08
2022-08-09T17:23:14.638Z,24.02
2022-08-09T17:25:53.088Z,23.96
2022-08-09T17:28:24.002Z,23.91
2022-08-09T17:30:54.731Z,23.85
2022-08-09T17:33:25.470Z,23.81
2022-08-09T17:35:56.610Z,23.77
2022-08-09T17:38:32.404Z,23.72
2022-08-09T17:41:08.316Z,23.66
2022-08-09T17:43:38.944Z,23.61
2022-08-09T17:46:11.528Z,23.56
2022-08-09T17:48:52.276Z,23.50
2022-08-09T17:51:23.842Z,23.43
2022-08-09T17:53:55.829Z,23.36
2022-08-09T17:56:28.962Z,23.31
2022-08-09T17:59:09.441Z,23.25
2022-08-09T18:02:06.374Z,23.19
2022-08-09T18:04:33.916Z,23.12
2022-08-09T18:07:07.638Z,23.05
2022-08-09T18:10:04.696Z,22.98
2022-08-09T18:12:40.677Z,22.92
2022-08-09T18:15:50.390Z,22.86
2022-08-09T18:18:25.525Z,22.80
2022-08-09T18:21:11.592Z,22.75
2022-08-09T18:24:10.174Z,22.70
2022-08-09T18:26:38.201Z,22.65
2022-08-09T18:30:41.160Z,22.61
2022-08-09T18:32:08.544Z,22.55
2022-08-09T18:34:40.099Z,22.51
2022-08-09T18:37:47.690Z,22.47
2022-08-09T18:40:01.041Z,22.40
2022-08-09T18:42:31.614Z,22.34
2022-08-09T18:45:08.741Z,22.30
2022-08-09T18:47:39.279Z,22.26
2022-08-09T18:50:10.206Z,22.20
2022-08-09T18:52:44.280Z,22.16
2022-08-09T18:55:14.871Z,22.12
2022-08-09T18:57:59.454Z,22.07
2022-08-09T19:00:30.178Z,22.03
2022-08-09T19:03:00.557Z,21.99
2022-08-09T19:05:48.790Z,21.94
2022-08-09T19:08:23.665Z,21.91
2022-08-09T19:10:59.020Z,21.88
2022-08-09T19:13:38.254Z,21.83
2022-08-09T19:16:21.134Z,21.79
2022-08-09T19:18:51.854Z,21.74
2022-08-09T19:21:52.244Z,21.69
2022-08-09T19:24:32.133Z,21.61
2022-08-09T19:27:03.996Z,21.53
2022-08-09T19:29:59.742Z,21.45
2022-08-09T19:32:29.626Z,21.39
2022-08-09T19:35:02.297Z,21.33
2022-08-09T19:37:54.135Z,21.28
2022-08-09T19:40:34.025Z,21.22
2022-08-09T19:43:10.375Z,21.16
2022-08-09T19:45:47.289Z,21.10
2022-08-09T19:49:00.858Z,21.05
2022-08-09T19:51:09.368Z,21.00
2022-08-09T19:53:45.316Z,20.96
2022-08-09T19:56:28.555Z,20.92
2022-08-09T19:59:39.276Z,20.86
2022-08-09T20:02:00.511Z,20.81
2022-08-09T20:04:40.764Z,20.75
2022-08-09T20:07:23.704Z,20.69
2022-08-09T20:09:54.402Z,20.64
2022-08-09T20:12:31.704Z,20.58
2022-08-09T20:16:31.830Z,20.53
2022-08-09T20:18:01.000Z,20.49
2022-08-09T20:20:31.678Z,20.43
2022-08-09T20:23:02.043Z,20.40
2022-08-09T20:25:49.582Z,20.36
2022-08-09T20:28:31.951Z,20.31
2022-08-09T20:31:09.290Z,20.27
2022-08-09T20:33:43.922Z,20.22
2022-08-09T20:36:15.450Z,20.18
2022-08-09T20:39:29.192Z,20.14
2022-08-09T20:41:41.542Z,20.10
2022-08-09T20:44:12.091Z,20.07
2022-08-09T20:46:44.934Z,20.04
2022-08-09T20:49:16.148Z,20.01
2022-08-09T20:51:50.805Z,19.98
2022-08-09T20:54:22.172Z,19.96
2022-08-09T20:56:56.077Z,19.92
2022-08-09T21:00:19.304Z,19.88
2022-08-09T21:02:18.865Z,19.84
2022-08-09T21:05:54.030Z,19.81
2022-08-09T21:07:44.501Z,19.76
2022-08-09T21:10:15.318Z,19.73
2022-08-09T21:15:34.800Z,19.66
2022-08-09T21:18:21.641Z,19.62
2022-08-09T21:20:56.792Z,19.59
2022-08-09T21:23:51.465Z,19.55
2022-08-09T21:26:17.978Z,19.50
2022-08-09T21:28:55.498Z,19.45
2022-08-09T21:31:49.364Z,19.40
2022-08-09T21:34:28.686Z,19.36
2022-08-09T21:37:00.319Z,19.32
2022-08-09T21:39:42.206Z,19.29
2022-08-09T21:42:13.094Z,19.27
2022-08-09T21:44:44.571Z,19.23
2022-08-09T21:47:17.443Z,19.19
2022-08-09T21:49:50.911Z,19.14
2022-08-09T21:52:22.166Z,19.10
2022-08-09T21:54:59.633Z,19.02
2022-08-09T21:57:39.437Z,18.94
2022-08-09T22:00:32.237Z,18.89
2022-08-09T22:03:05.985Z,18.84
2022-08-09T22:05:42.407Z,18.77
2022-08-09T22:08:15.366Z,18.70
2022-08-09T22:11:00.196Z,18.63
2022-08-09T22:13:37.748Z,18.95
2022-08-09T22:16:09.455Z,20.30
2022-08-09T22:18:53.021Z,21.17
2022-08-09T22:21:44.703Z,20.61
2022-08-09T22:24:20.961Z,19.84
2022-08-09T22:26:55.073Z,19.38
2022-08-09T22:29:34.493Z,19.06
2022-08-09T22:32:30.229Z,18.78
2022-08-09T22:35:06.415Z,18.58
2022-08-09T22:37:40.404Z,18.46
2022-08-09T22:40:20.262Z,19.31
2022-08-09T22:42:51.277Z,20.62
2022-08-09T22:48:13.620Z,21.22
2022-08-09T22:48:35.512Z,20.58
2022-08-09T22:51:10.395Z,19.88
2022-08-09T22:53:58.211Z,19.42
2022-08-09T22:56:34.082Z,19.06
2022-08-09T22:59:05.861Z,18.79
2022-08-09T23:01:55.610Z,18.53
2022-08-09T23:04:26.301Z,18.60
2022-08-09T23:08:23.318Z,19.86
2022-08-09T23:10:11.701Z,20.72
2022-08-09T23:12:42.323Z,20.10
2022-08-09T23:15:13.111Z,19.50
2022-08-09T23:17:43.584Z,19.07
2022-08-09T23:20:14.361Z,18.76
2022-08-09T23:22:45.481Z,18.51
2022-08-09T23:25:15.892Z,18.60
2022-08-09T23:27:57.903Z,19.79
2022-08-09T23:30:37.835Z,20.99
2022-08-09T23:33:08.205Z,21.45
2022-08-09T23:36:04.440Z,20.78
2022-08-09T23:38:29.289Z,19.95
2022-08-09T23:41:00.017Z,19.44
2022-08-09T23:43:30.955Z,19.02
2022-08-09T23:46:01.847Z,18.72
2022-08-09T23:48:32.333Z,18.48
2022-08-09T23:51:03.153Z,18.28
2022-08-09T23:53:37.514Z,18.13
2022-08-09T23:56:09.336Z,18.33
2022-08-09T23:58:39.822Z,19.64
